sensor_id;sensor_type;location;lat;lon;timestamp;temperature;humidity
73133;DHT22;61320;52.008;4.530;2023-02-15T00:01:20;5.43;75.30
73133;DHT22;61320;52.008;4.530;2023-02-15T00:03:48;5.42;75.34
73133;DHT22;61320;52.008;4.530;2023-02-15T00:06:14;5.43;75.32
73133;DHT22;61320;52.008;4.530;2023-02-15T00:08:40;5.43;75.31
73133;DHT22;61320;52.008;4.530;2023-02-15T00:13:31;5.37;75.40
73133;DHT22;61320;52.008;4.530;2023-02-15T00:16:07;5.34;75.38
73133;DHT22;61320;52.008;4.530;2023-02-15T00:18:33;5.32;75.55
73133;DHT22;61320;52.008;4.530;2023-02-15T00:21:06;5.32;75.54
73133;DHT22;61320;52.008;4.530;2023-02-15T00:23:32;5.32;75.63
73133;DHT22;61320;52.008;4.530;2023-02-15T00:26:10;5.29;75.49
73133;DHT22;61320;52.008;4.530;2023-02-15T00:28:36;5.29;75.48
73133;DHT22;61320;52.008;4.530;2023-02-15T00:31:06;5.27;75.54
73133;DHT22;61320;52.008;4.530;2023-02-15T00:33:32;5.30;75.50
73133;DHT22;61320;52.008;4.530;2023-02-15T00:35:58;5.26;75.36
73133;DHT22;61320;52.008;4.530;2023-02-15T00:38:26;5.24;75.32
73133;DHT22;61320;52.008;4.530;2023-02-15T00:40:54;5.23;75.33
73133;DHT22;61320;52.008;4.530;2023-02-15T00:43:20;5.22;75.31
73133;DHT22;61320;52.008;4.530;2023-02-15T00:45:46;5.20;75.25
73133;DHT22;61320;52.008;4.530;2023-02-15T00:48:12;5.20;75.26
73133;DHT22;61320;52.008;4.530;2023-02-15T00:50:37;5.15;75.25
73133;DHT22;61320;52.008;4.530;2023-02-15T00:53:03;5.15;75.25
73133;DHT22;61320;52.008;4.530;2023-02-15T00:55:28;5.13;75.15
73133;DHT22;61320;52.008;4.530;2023-02-15T00:57:54;5.13;75.21
73133;DHT22;61320;52.008;4.530;2023-02-15T01:00:19;5.11;75.16
73133;DHT22;61320;52.008;4.530;2023-02-15T01:02:45;5.08;75.14
73133;DHT22;61320;52.008;4.530;2023-02-15T01:05:10;5.06;75.14
73133;DHT22;61320;52.008;4.530;2023-02-15T01:07:35;5.03;75.19
73133;DHT22;61320;52.008;4.530;2023-02-15T01:10:01;5.00;75.22
73133;DHT22;61320;52.008;4.530;2023-02-15T01:12:26;4.99;75.27
73133;DHT22;61320;52.008;4.530;2023-02-15T01:14:52;4.96;75.35
73133;DHT22;61320;52.008;4.530;2023-02-15T01:17:17;5.00;75.44
73133;DHT22;61320;52.008;4.530;2023-02-15T01:19:43;4.96;75.42
73133;DHT22;61320;52.008;4.530;2023-02-15T01:22:08;4.93;75.38
73133;DHT22;61320;52.008;4.530;2023-02-15T01:24:34;4.93;75.40
73133;DHT22;61320;52.008;4.530;2023-02-15T01:26:59;4.92;75.46
73133;DHT22;61320;52.008;4.530;2023-02-15T01:29:25;4.86;75.42
73133;DHT22;61320;52.008;4.530;2023-02-15T01:31:50;4.85;75.64
73133;DHT22;61320;52.008;4.530;2023-02-15T01:34:15;4.86;75.92
73133;DHT22;61320;52.008;4.530;2023-02-15T01:36:41;4.88;75.92
73133;DHT22;61320;52.008;4.530;2023-02-15T01:39:06;4.89;75.89
73133;DHT22;61320;52.008;4.530;2023-02-15T01:41:33;4.91;75.78
73133;DHT22;61320;52.008;4.530;2023-02-15T01:44:00;4.89;75.73
73133;DHT22;61320;52.008;4.530;2023-02-15T01:46:40;4.89;75.62
73133;DHT22;61320;52.008;4.530;2023-02-15T01:49:15;4.89;75.52
73133;DHT22;61320;52.008;4.530;2023-02-15T01:51:46;4.86;75.47
73133;DHT22;61320;52.008;4.530;2023-02-15T01:54:24;4.84;75.39
73133;DHT22;61320;52.008;4.530;2023-02-15T01:56:52;4.79;75.30
73133;DHT22;61320;52.008;4.530;2023-02-15T01:59:23;4.76;75.34
73133;DHT22;61320;52.008;4.530;2023-02-15T02:01:52;4.75;75.34
73133;DHT22;61320;52.008;4.530;2023-02-15T02:04:31;4.72;75.27
73133;DHT22;61320;52.008;4.530;2023-02-15T02:06:59;4.65;75.39
73133;DHT22;61320;52.008;4.530;2023-02-15T02:09:25;4.65;75.35
73133;DHT22;61320;52.008;4.530;2023-02-15T02:11:52;4.61;75.33
73133;DHT22;61320;52.008;4.530;2023-02-15T02:14:21;4.60;75.30
73133;DHT22;61320;52.008;4.530;2023-02-15T02:33:32;4.41;75.59
73133;DHT22;61320;52.008;4.530;2023-02-15T02:44:25;4.34;76.09
73133;DHT22;61320;52.008;4.530;2023-02-15T02:47:20;4.34;76.33
73133;DHT22;61320;52.008;4.530;2023-02-15T02:49:44;4.37;76.34
73133;DHT22;61320;52.008;4.530;2023-02-15T02:57:57;4.41;76.11
73133;DHT22;61320;52.008;4.530;2023-02-15T03:00:27;4.38;75.97
73133;DHT22;61320;52.008;4.530;2023-02-15T03:03:06;4.37;75.95
73133;DHT22;61320;52.008;4.530;2023-02-15T03:05:38;4.33;75.90
73133;DHT22;61320;52.008;4.530;2023-02-15T03:08:08;4.33;75.89
73133;DHT22;61320;52.008;4.530;2023-02-15T03:10:38;4.29;75.94
73133;DHT22;61320;52.008;4.530;2023-02-15T03:13:05;4.27;75.95
73133;DHT22;61320;52.008;4.530;2023-02-15T03:15:34;4.26;75.92
73133;DHT22;61320;52.008;4.530;2023-02-15T03:18:25;4.23;75.92
73133;DHT22;61320;52.008;4.530;2023-02-15T03:20:55;4.21;75.94
73133;DHT22;61320;52.008;4.530;2023-02-15T03:23:24;4.23;76.00
73133;DHT22;61320;52.008;4.530;2023-02-15T03:26:00;4.20;76.02
73133;DHT22;61320;52.008;4.530;2023-02-15T03:28:40;4.17;75.96
73133;DHT22;61320;52.008;4.530;2023-02-15T03:31:09;4.17;76.01
73133;DHT22;61320;52.008;4.530;2023-02-15T03:33:44;4.16;76.05
73133;DHT22;61320;52.008;4.530;2023-02-15T03:36:23;4.13;76.11
73133;DHT22;61320;52.008;4.530;2023-02-15T03:38:59;4.16;76.08
73133;DHT22;61320;52.008;4.530;2023-02-15T03:41:36;4.14;76.10
73133;DHT22;61320;52.008;4.530;2023-02-15T03:44:13;4.14;76.10
73133;DHT22;61320;52.008;4.530;2023-02-15T03:49:43;4.17;76.20
73133;DHT22;61320;52.008;4.530;2023-02-15T03:52:13;4.16;76.24
73133;DHT22;61320;52.008;4.530;2023-02-15T03:54:41;4.16;76.19
73133;DHT22;61320;52.008;4.530;2023-02-15T03:57:25;4.16;76.16
73133;DHT22;61320;52.008;4.530;2023-02-15T04:05:37;4.20;76.10
73133;DHT22;61320;52.008;4.530;2023-02-15T04:08:03;4.21;75.97
73133;DHT22;61320;52.008;4.530;2023-02-15T04:10:29;4.21;75.90
73133;DHT22;61320;52.008;4.530;2023-02-15T04:13:13;4.18;75.92
73133;DHT22;61320;52.008;4.530;2023-02-15T04:15:38;4.20;75.98
73133;DHT22;61320;52.008;4.530;2023-02-15T04:18:22;4.16;76.03
73133;DHT22;61320;52.008;4.530;2023-02-15T04:21:06;4.17;76.05
73133;DHT22;61320;52.008;4.530;2023-02-15T04:23:50;4.16;76.16
73133;DHT22;61320;52.008;4.530;2023-02-15T04:26:34;4.16;76.07
73133;DHT22;61320;52.008;4.530;2023-02-15T04:29:00;4.16;76.08
73133;DHT22;61320;52.008;4.530;2023-02-15T04:31:25;4.17;76.12
73133;DHT22;61320;52.008;4.530;2023-02-15T04:33:51;4.16;76.30
73133;DHT22;61320;52.008;4.530;2023-02-15T04:36:16;4.16;76.51
73133;DHT22;61320;52.008;4.530;2023-02-15T04:38:42;4.20;76.52
73133;DHT22;61320;52.008;4.530;2023-02-15T04:41:07;4.20;76.75
73133;DHT22;61320;52.008;4.530;2023-02-15T04:43:34;4.21;76.95
73133;DHT22;61320;52.008;4.530;2023-02-15T04:45:59;4.26;76.98
73133;DHT22;61320;52.008;4.530;2023-02-15T04:48:24;4.27;76.97
73133;DHT22;61320;52.008;4.530;2023-02-15T04:50:50;4.27;76.94
73133;DHT22;61320;52.008;4.530;2023-02-15T04:53:15;4.30;76.77
73133;DHT22;61320;52.008;4.530;2023-02-15T04:55:42;4.33;76.68
73133;DHT22;61320;52.008;4.530;2023-02-15T04:58:08;4.30;76.58
73133;DHT22;61320;52.008;4.530;2023-02-15T05:00:33;4.30;76.49
73133;DHT22;61320;52.008;4.530;2023-02-15T05:02:58;4.30;76.58
73133;DHT22;61320;52.008;4.530;2023-02-15T05:05:24;4.29;76.53
73133;DHT22;61320;52.008;4.530;2023-02-15T05:07:49;4.27;76.56
73133;DHT22;61320;52.008;4.530;2023-02-15T05:10:15;4.27;76.58
73133;DHT22;61320;52.008;4.530;2023-02-15T05:12:40;4.21;76.81
73133;DHT22;61320;52.008;4.530;2023-02-15T05:15:06;4.21;76.97
73133;DHT22;61320;52.008;4.530;2023-02-15T05:17:31;4.24;76.96
73133;DHT22;61320;52.008;4.530;2023-02-15T05:19:57;4.27;76.75
73133;DHT22;61320;52.008;4.530;2023-02-15T05:22:22;4.24;76.63
73133;DHT22;61320;52.008;4.530;2023-02-15T05:24:48;4.21;76.59
73133;DHT22;61320;52.008;4.530;2023-02-15T05:27:31;4.21;76.84
73133;DHT22;61320;52.008;4.530;2023-02-15T05:30:16;4.21;76.94
73133;DHT22;61320;52.008;4.530;2023-02-15T05:32:41;4.20;76.99
73133;DHT22;61320;52.008;4.530;2023-02-15T05:35:07;4.23;76.96
73133;DHT22;61320;52.008;4.530;2023-02-15T05:37:33;4.24;76.71
73133;DHT22;61320;52.008;4.530;2023-02-15T05:39:58;4.26;76.64
73133;DHT22;61320;52.008;4.530;2023-02-15T05:42:24;4.20;76.82
73133;DHT22;61320;52.008;4.530;2023-02-15T05:44:49;4.24;76.90
73133;DHT22;61320;52.008;4.530;2023-02-15T05:47:15;4.23;76.85
73133;DHT22;61320;52.008;4.530;2023-02-15T05:49:40;4.23;76.97
73133;DHT22;61320;52.008;4.530;2023-02-15T05:52:05;4.23;77.06
73133;DHT22;61320;52.008;4.530;2023-02-15T05:54:31;4.21;77.27
73133;DHT22;61320;52.008;4.530;2023-02-15T05:56:56;4.26;77.14
73133;DHT22;61320;52.008;4.530;2023-02-15T05:59:22;4.27;76.96
73133;DHT22;61320;52.008;4.530;2023-02-15T06:01:48;4.26;76.78
73133;DHT22;61320;52.008;4.530;2023-02-15T06:04:13;4.24;76.75
73133;DHT22;61320;52.008;4.530;2023-02-15T06:06:39;4.23;76.77
73133;DHT22;61320;52.008;4.530;2023-02-15T06:09:04;4.20;76.70
73133;DHT22;61320;52.008;4.530;2023-02-15T06:11:29;4.20;76.77
73133;DHT22;61320;52.008;4.530;2023-02-15T06:13:55;4.20;76.74
73133;DHT22;61320;52.008;4.530;2023-02-15T06:16:21;4.16;76.67
73133;DHT22;61320;52.008;4.530;2023-02-15T06:18:47;4.11;76.60
73133;DHT22;61320;52.008;4.530;2023-02-15T06:21:12;4.09;76.91
73133;DHT22;61320;52.008;4.530;2023-02-15T06:23:38;4.10;77.14
73133;DHT22;61320;52.008;4.530;2023-02-15T06:26:03;4.07;77.21
73133;DHT22;61320;52.008;4.530;2023-02-15T06:28:29;4.05;77.28
73133;DHT22;61320;52.008;4.530;2023-02-15T06:30:54;4.09;77.22
73133;DHT22;61320;52.008;4.530;2023-02-15T06:33:21;4.07;77.08
73133;DHT22;61320;52.008;4.530;2023-02-15T06:35:46;4.07;77.11
73133;DHT22;61320;52.008;4.530;2023-02-15T06:38:12;4.06;77.12
73133;DHT22;61320;52.008;4.530;2023-02-15T06:40:37;4.03;77.31
73133;DHT22;61320;52.008;4.530;2023-02-15T06:43:03;4.02;77.58
73133;DHT22;61320;52.008;4.530;2023-02-15T06:45:29;4.05;77.60
73133;DHT22;61320;52.008;4.530;2023-02-15T06:47:54;4.05;77.55
73133;DHT22;61320;52.008;4.530;2023-02-15T06:50:20;4.06;77.64
73133;DHT22;61320;52.008;4.530;2023-02-15T06:52:45;4.07;77.55
73133;DHT22;61320;52.008;4.530;2023-02-15T06:55:11;4.03;77.58
73133;DHT22;61320;52.008;4.530;2023-02-15T06:57:36;4.05;77.72
73133;DHT22;61320;52.008;4.530;2023-02-15T07:00:02;4.05;77.69
73133;DHT22;61320;52.008;4.530;2023-02-15T07:02:30;4.07;77.52
73133;DHT22;61320;52.008;4.530;2023-02-15T07:04:56;4.06;77.49
73133;DHT22;61320;52.008;4.530;2023-02-15T07:07:22;4.09;77.58
73133;DHT22;61320;52.008;4.530;2023-02-15T07:09:47;4.06;77.56
73133;DHT22;61320;52.008;4.530;2023-02-15T07:12:13;4.07;77.67
73133;DHT22;61320;52.008;4.530;2023-02-15T07:14:57;4.10;77.67
73133;DHT22;61320;52.008;4.530;2023-02-15T07:17:23;4.10;77.82
73133;DHT22;61320;52.008;4.530;2023-02-15T07:19:49;4.11;77.95
73133;DHT22;61320;52.008;4.530;2023-02-15T07:22:14;4.16;77.99
73133;DHT22;61320;52.008;4.530;2023-02-15T07:24:40;4.17;78.03
73133;DHT22;61320;52.008;4.530;2023-02-15T07:27:07;4.20;78.23
73133;DHT22;61320;52.008;4.530;2023-02-15T07:29:32;4.20;78.22
73133;DHT22;61320;52.008;4.530;2023-02-15T07:31:58;4.24;78.29
73133;DHT22;61320;52.008;4.530;2023-02-15T07:34:23;4.30;78.07
73133;DHT22;61320;52.008;4.530;2023-02-15T07:36:50;4.34;78.03
73133;DHT22;61320;52.008;4.530;2023-02-15T07:39:16;4.36;78.30
73133;DHT22;61320;52.008;4.530;2023-02-15T07:41:41;4.41;78.31
73133;DHT22;61320;52.008;4.530;2023-02-15T07:44:11;4.44;78.47
73133;DHT22;61320;52.008;4.530;2023-02-15T07:46:37;4.44;78.61
73133;DHT22;61320;52.008;4.530;2023-02-15T07:49:02;4.53;78.62
73133;DHT22;61320;52.008;4.530;2023-02-15T07:51:28;4.57;78.55
73133;DHT22;61320;52.008;4.530;2023-02-15T07:53:54;4.57;78.68
73133;DHT22;61320;52.008;4.530;2023-02-15T07:56:20;4.62;78.56
73133;DHT22;61320;52.008;4.530;2023-02-15T07:58:45;4.65;78.57
73133;DHT22;61320;52.008;4.530;2023-02-15T08:01:19;4.72;78.56
73133;DHT22;61320;52.008;4.530;2023-02-15T08:03:44;4.74;78.80
73133;DHT22;61320;52.008;4.530;2023-02-15T08:06:10;4.75;78.87
73133;DHT22;61320;52.008;4.530;2023-02-15T08:08:39;4.86;78.73
73133;DHT22;61320;52.008;4.530;2023-02-15T08:14:07;4.96;78.41
73133;DHT22;61320;52.008;4.530;2023-02-15T08:19:17;5.11;78.40
73133;DHT22;61320;52.008;4.530;2023-02-15T08:21:45;5.19;78.34
73133;DHT22;61320;52.008;4.530;2023-02-15T08:24:13;5.26;78.27
73133;DHT22;61320;52.008;4.530;2023-02-15T08:26:39;5.37;78.18
73133;DHT22;61320;52.008;4.530;2023-02-15T08:29:05;5.44;77.94
73133;DHT22;61320;52.008;4.530;2023-02-15T08:31:33;5.51;77.72
73133;DHT22;61320;52.008;4.530;2023-02-15T08:33:59;5.51;77.73
73133;DHT22;61320;52.008;4.530;2023-02-15T08:36:28;5.55;77.73
73133;DHT22;61320;52.008;4.530;2023-02-15T08:38:56;5.64;77.63
73133;DHT22;61320;52.008;4.530;2023-02-15T08:41:25;5.71;77.45
73133;DHT22;61320;52.008;4.530;2023-02-15T08:43:57;5.79;77.47
73133;DHT22;61320;52.008;4.530;2023-02-15T08:46:25;5.92;77.08
73133;DHT22;61320;52.008;4.530;2023-02-15T08:48:51;5.92;77.29
73133;DHT22;61320;52.008;4.530;2023-02-15T08:51:22;6.08;77.28
73133;DHT22;61320;52.008;4.530;2023-02-15T08:53:51;6.16;77.10
73133;DHT22;61320;52.008;4.530;2023-02-15T08:56:19;6.26;77.06
73133;DHT22;61320;52.008;4.530;2023-02-15T08:58:46;6.42;76.67
73133;DHT22;61320;52.008;4.530;2023-02-15T09:01:32;6.52;76.53
73133;DHT22;61320;52.008;4.530;2023-02-15T09:04:01;6.60;76.24
73133;DHT22;61320;52.008;4.530;2023-02-15T09:06:27;6.80;75.98
73133;DHT22;61320;52.008;4.530;2023-02-15T09:08:54;6.90;76.17
73133;DHT22;61320;52.008;4.530;2023-02-15T09:11:23;7.11;75.99
73133;DHT22;61320;52.008;4.530;2023-02-15T09:13:54;7.25;75.07
73133;DHT22;61320;52.008;4.530;2023-02-15T09:16:22;7.39;75.42
73133;DHT22;61320;52.008;4.530;2023-02-15T09:18:48;7.62;75.14
73133;DHT22;61320;52.008;4.530;2023-02-15T09:21:16;7.79;74.60
73133;DHT22;61320;52.008;4.530;2023-02-15T09:23:44;7.97;74.50
73133;DHT22;61320;52.008;4.530;2023-02-15T09:26:12;8.18;74.21
73133;DHT22;61320;52.008;4.530;2023-02-15T09:28:39;8.45;73.39
73133;DHT22;61320;52.008;4.530;2023-02-15T09:31:15;8.69;72.22
73133;DHT22;61320;52.008;4.530;2023-02-15T09:33:44;8.76;71.82
73133;DHT22;61320;52.008;4.530;2023-02-15T09:39:25;9.10;70.78
73133;DHT22;61320;52.008;4.530;2023-02-15T09:52:44;10.13;68.06
73133;DHT22;61320;52.008;4.530;2023-02-15T10:15:10;10.82;62.46
73133;DHT22;61320;52.008;4.530;2023-02-15T10:28:59;11.35;60.63
73133;DHT22;61320;52.008;4.530;2023-02-15T10:34:38;11.50;59.83
73133;DHT22;61320;52.008;4.530;2023-02-15T10:42:50;11.84;60.43
73133;DHT22;61320;52.008;4.530;2023-02-15T10:45:55;11.91;59.15
73133;DHT22;61320;52.008;4.530;2023-02-15T10:51:03;12.05;58.37
73133;DHT22;61320;52.008;4.530;2023-02-15T11:01:34;11.91;57.83
73133;DHT22;61320;52.008;4.530;2023-02-15T11:06:54;11.77;61.43
73133;DHT22;61320;52.008;4.530;2023-02-15T11:09:24;11.70;61.67
73133;DHT22;61320;52.008;4.530;2023-02-15T11:11:54;11.73;62.99
73133;DHT22;61320;52.008;4.530;2023-02-15T11:14:35;11.81;62.26
73133;DHT22;61320;52.008;4.530;2023-02-15T11:17:30;11.85;61.77
73133;DHT22;61320;52.008;4.530;2023-02-15T11:22:30;12.02;62.10
73133;DHT22;61320;52.008;4.530;2023-02-15T11:25:00;12.08;61.52
73133;DHT22;61320;52.008;4.530;2023-02-15T11:27:31;12.10;61.32
73133;DHT22;61320;52.008;4.530;2023-02-15T11:30:09;12.18;61.74
73133;DHT22;61320;52.008;4.530;2023-02-15T11:32:45;12.35;61.27
73133;DHT22;61320;52.008;4.530;2023-02-15T11:38:10;12.70;60.09
73133;DHT22;61320;52.008;4.530;2023-02-15T11:40:48;12.52;58.94
73133;DHT22;61320;52.008;4.530;2023-02-15T11:43:43;12.38;59.39
73133;DHT22;61320;52.008;4.530;2023-02-15T11:46:12;12.33;60.70
73133;DHT22;61320;52.008;4.530;2023-02-15T11:48:39;12.43;60.19
73133;DHT22;61320;52.008;4.530;2023-02-15T11:51:05;12.46;59.80
73133;DHT22;61320;52.008;4.530;2023-02-15T11:53:37;12.55;59.90
73133;DHT22;61320;52.008;4.530;2023-02-15T11:56:03;12.66;59.67
73133;DHT22;61320;52.008;4.530;2023-02-15T12:06:59;12.96;59.54
73133;DHT22;61320;52.008;4.530;2023-02-15T12:09:30;13.00;58.38
73133;DHT22;61320;52.008;4.530;2023-02-15T12:14:52;13.01;58.88
73133;DHT22;61320;52.008;4.530;2023-02-15T12:17:21;13.04;58.84
73133;DHT22;61320;52.008;4.530;2023-02-15T12:19:50;13.03;57.56
73133;DHT22;61320;52.008;4.530;2023-02-15T12:22:36;13.06;58.11
73133;DHT22;61320;52.008;4.530;2023-02-15T12:25:20;13.12;58.26
73133;DHT22;61320;52.008;4.530;2023-02-15T12:27:47;13.17;58.04
73133;DHT22;61320;52.008;4.530;2023-02-15T12:30:35;13.21;57.29
73133;DHT22;61320;52.008;4.530;2023-02-15T12:35:57;13.03;57.58
73133;DHT22;61320;52.008;4.530;2023-02-15T12:38:27;12.94;58.04
73133;DHT22;61320;52.008;4.530;2023-02-15T12:41:10;12.97;58.33
73133;DHT22;61320;52.008;4.530;2023-02-15T12:43:46;13.01;59.05
73133;DHT22;61320;52.008;4.530;2023-02-15T12:46:22;13.04;58.09
73133;DHT22;61320;52.008;4.530;2023-02-15T12:51:50;13.03;58.57
73133;DHT22;61320;52.008;4.530;2023-02-15T12:54:37;13.06;58.54
73133;DHT22;61320;52.008;4.530;2023-02-15T12:57:26;13.03;58.72
73133;DHT22;61320;52.008;4.530;2023-02-15T13:02:25;13.01;58.22
73133;DHT22;61320;52.008;4.530;2023-02-15T13:04:53;13.07;58.41
73133;DHT22;61320;52.008;4.530;2023-02-15T13:07:19;13.03;58.70
73133;DHT22;61320;52.008;4.530;2023-02-15T13:09:46;12.93;58.95
73133;DHT22;61320;52.008;4.530;2023-02-15T13:12:28;12.89;59.51
73133;DHT22;61320;52.008;4.530;2023-02-15T13:14:56;12.89;58.79
73133;DHT22;61320;52.008;4.530;2023-02-15T13:17:32;12.89;58.84
73133;DHT22;61320;52.008;4.530;2023-02-15T13:20:16;12.80;60.08
73133;DHT22;61320;52.008;4.530;2023-02-15T13:22:46;12.87;60.17
73133;DHT22;61320;52.008;4.530;2023-02-15T13:25:25;12.94;59.81
73133;DHT22;61320;52.008;4.530;2023-02-15T13:27:57;12.96;59.71
73133;DHT22;61320;52.008;4.530;2023-02-15T13:32:54;12.99;59.79
73133;DHT22;61320;52.008;4.530;2023-02-15T13:35:22;13.04;59.72
73133;DHT22;61320;52.008;4.530;2023-02-15T13:38:21;13.11;59.40
73133;DHT22;61320;52.008;4.530;2023-02-15T13:40:50;13.21;58.68
73133;DHT22;61320;52.008;4.530;2023-02-15T13:48:59;13.24;58.52
73133;DHT22;61320;52.008;4.530;2023-02-15T14:10:14;13.79;58.56
73133;DHT22;61320;52.008;4.530;2023-02-15T14:13:10;13.93;56.73
73133;DHT22;61320;52.008;4.530;2023-02-15T14:15:48;13.96;57.28
73133;DHT22;61320;52.008;4.530;2023-02-15T14:21:06;13.93;56.51
73133;DHT22;61320;52.008;4.530;2023-02-15T14:27:07;13.96;58.33
73133;DHT22;61320;52.008;4.530;2023-02-15T14:29:51;14.02;57.17
73133;DHT22;61320;52.008;4.530;2023-02-15T14:32:59;14.02;57.04
73133;DHT22;61320;52.008;4.530;2023-02-15T14:35:20;13.99;56.86
73133;DHT22;61320;52.008;4.530;2023-02-15T14:49:09;13.63;57.77
73133;DHT22;61320;52.008;4.530;2023-02-15T14:59:24;13.65;57.10
73133;DHT22;61320;52.008;4.530;2023-02-15T15:04:41;13.59;57.93
73133;DHT22;61320;52.008;4.530;2023-02-15T15:12:53;13.44;58.89
73133;DHT22;61320;52.008;4.530;2023-02-15T15:18:10;13.54;58.48
73133;DHT22;61320;52.008;4.530;2023-02-15T15:20:42;13.51;59.19
73133;DHT22;61320;52.008;4.530;2023-02-15T15:43:19;13.07;61.00
73133;DHT22;61320;52.008;4.530;2023-02-15T15:49:01;12.94;61.23
73133;DHT22;61320;52.008;4.530;2023-02-15T15:51:33;12.87;61.40
73133;DHT22;61320;52.008;4.530;2023-02-15T15:54:01;12.80;61.74
73133;DHT22;61320;52.008;4.530;2023-02-15T15:56:34;12.72;62.05
73133;DHT22;61320;52.008;4.530;2023-02-15T15:59:07;12.67;62.36
73133;DHT22;61320;52.008;4.530;2023-02-15T16:01:42;12.63;63.15
73133;DHT22;61320;52.008;4.530;2023-02-15T16:04:30;12.66;63.14
73133;DHT22;61320;52.008;4.530;2023-02-15T16:06:57;12.57;63.49
73133;DHT22;61320;52.008;4.530;2023-02-15T16:09:27;12.56;63.29
73133;DHT22;61320;52.008;4.530;2023-02-15T16:11:57;12.49;63.35
73133;DHT22;61320;52.008;4.530;2023-02-15T16:14:32;12.38;64.06
73133;DHT22;61320;52.008;4.530;2023-02-15T16:17:03;12.35;64.20
73133;DHT22;61320;52.008;4.530;2023-02-15T16:19:33;12.33;64.37
73133;DHT22;61320;52.008;4.530;2023-02-15T16:22:02;12.35;64.31
73133;DHT22;61320;52.008;4.530;2023-02-15T16:27:34;12.31;63.60
73133;DHT22;61320;52.008;4.530;2023-02-15T16:35:30;12.20;64.13
73133;DHT22;61320;52.008;4.530;2023-02-15T16:37:56;12.08;64.68
73133;DHT22;61320;52.008;4.530;2023-02-15T16:40:31;11.99;65.21
73133;DHT22;61320;52.008;4.530;2023-02-15T16:43:04;11.98;65.64
73133;DHT22;61320;52.008;4.530;2023-02-15T16:45:31;12.01;65.16
73133;DHT22;61320;52.008;4.530;2023-02-15T16:48:05;11.98;65.49
73133;DHT22;61320;52.008;4.530;2023-02-15T16:50:36;11.98;65.66
73133;DHT22;61320;52.008;4.530;2023-02-15T16:53:05;11.99;65.21
73133;DHT22;61320;52.008;4.530;2023-02-15T16:55:38;11.97;65.20
73133;DHT22;61320;52.008;4.530;2023-02-15T16:58:06;11.95;65.19
73133;DHT22;61320;52.008;4.530;2023-02-15T17:00:38;11.87;65.08
73133;DHT22;61320;52.008;4.530;2023-02-15T17:05:52;11.73;65.22
73133;DHT22;61320;52.008;4.530;2023-02-15T17:08:34;11.70;65.18
73133;DHT22;61320;52.008;4.530;2023-02-15T17:16:33;11.63;64.66
73133;DHT22;61320;52.008;4.530;2023-02-15T17:19:02;11.63;64.59
73133;DHT22;61320;52.008;4.530;2023-02-15T17:21:33;11.63;64.00
73133;DHT22;61320;52.008;4.530;2023-02-15T17:24:02;11.62;64.42
73133;DHT22;61320;52.008;4.530;2023-02-15T17:26:34;11.63;63.42
73133;DHT22;61320;52.008;4.530;2023-02-15T17:31:58;11.59;63.92
73133;DHT22;61320;52.008;4.530;2023-02-15T17:34:43;11.54;63.83
73133;DHT22;61320;52.008;4.530;2023-02-15T17:39:51;11.52;63.94
73133;DHT22;61320;52.008;4.530;2023-02-15T17:42:16;11.52;63.84
73133;DHT22;61320;52.008;4.530;2023-02-15T17:44:41;11.57;63.58
73133;DHT22;61320;52.008;4.530;2023-02-15T17:47:14;11.47;64.21
73133;DHT22;61320;52.008;4.530;2023-02-15T17:49:40;11.46;64.01
73133;DHT22;61320;52.008;4.530;2023-02-15T17:52:11;11.35;64.53
73133;DHT22;61320;52.008;4.530;2023-02-15T17:54:37;11.40;64.74
73133;DHT22;61320;52.008;4.530;2023-02-15T17:57:21;11.50;64.05
73133;DHT22;61320;52.008;4.530;2023-02-15T17:59:47;11.49;64.23
73133;DHT22;61320;52.008;4.530;2023-02-15T18:02:34;11.39;65.03
73133;DHT22;61320;52.008;4.530;2023-02-15T18:05:19;11.42;64.63
73133;DHT22;61320;52.008;4.530;2023-02-15T18:08:12;11.37;65.03
73133;DHT22;61320;52.008;4.530;2023-02-15T18:10:57;11.39;65.20
73133;DHT22;61320;52.008;4.530;2023-02-15T18:13:41;11.40;65.48
73133;DHT22;61320;52.008;4.530;2023-02-15T18:16:17;11.40;65.54
73133;DHT22;61320;52.008;4.530;2023-02-15T18:18:44;11.42;65.00
73133;DHT22;61320;52.008;4.530;2023-02-15T18:21:11;11.35;65.39
73133;DHT22;61320;52.008;4.530;2023-02-15T18:23:37;11.26;65.71
73133;DHT22;61320;52.008;4.530;2023-02-15T18:26:03;11.22;66.06
73133;DHT22;61320;52.008;4.530;2023-02-15T18:28:28;11.20;65.97
73133;DHT22;61320;52.008;4.530;2023-02-15T18:30:54;11.16;66.09
73133;DHT22;61320;52.008;4.530;2023-02-15T18:33:31;11.18;66.14
73133;DHT22;61320;52.008;4.530;2023-02-15T18:36:00;11.19;65.82
73133;DHT22;61320;52.008;4.530;2023-02-15T18:38:26;11.18;65.92
73133;DHT22;61320;52.008;4.530;2023-02-15T18:40:52;11.13;65.41
73133;DHT22;61320;52.008;4.530;2023-02-15T18:43:17;11.11;65.59
73133;DHT22;61320;52.008;4.530;2023-02-15T18:45:43;11.11;65.34
73133;DHT22;61320;52.008;4.530;2023-02-15T18:48:08;11.09;65.42
73133;DHT22;61320;52.008;4.530;2023-02-15T18:50:36;11.15;65.16
73133;DHT22;61320;52.008;4.530;2023-02-15T18:53:05;11.18;64.79
73133;DHT22;61320;52.008;4.530;2023-02-15T18:55:31;11.13;64.85
73133;DHT22;61320;52.008;4.530;2023-02-15T18:58:00;11.15;64.95
73133;DHT22;61320;52.008;4.530;2023-02-15T19:00:31;11.11;64.83
73133;DHT22;61320;52.008;4.530;2023-02-15T19:02:59;11.08;64.95
73133;DHT22;61320;52.008;4.530;2023-02-15T19:05:28;11.09;64.85
73133;DHT22;61320;52.008;4.530;2023-02-15T19:07:55;11.09;64.62
73133;DHT22;61320;52.008;4.530;2023-02-15T19:10:24;11.06;64.76
73133;DHT22;61320;52.008;4.530;2023-02-15T19:12:51;11.08;64.98
73133;DHT22;61320;52.008;4.530;2023-02-15T19:15:23;11.08;65.12
73133;DHT22;61320;52.008;4.530;2023-02-15T19:17:49;11.06;65.16
73133;DHT22;61320;52.008;4.530;2023-02-15T19:20:20;10.96;65.14
73133;DHT22;61320;52.008;4.530;2023-02-15T19:22:48;10.89;65.47
73133;DHT22;61320;52.008;4.530;2023-02-15T19:25:19;10.95;64.94
73133;DHT22;61320;52.008;4.530;2023-02-15T19:27:46;10.91;64.92
73133;DHT22;61320;52.008;4.530;2023-02-15T19:30:50;10.82;65.03
73133;DHT22;61320;52.008;4.530;2023-02-15T19:33:15;10.79;65.15
73133;DHT22;61320;52.008;4.530;2023-02-15T19:35:44;10.75;65.18
73133;DHT22;61320;52.008;4.530;2023-02-15T19:38:17;10.69;65.08
73133;DHT22;61320;52.008;4.530;2023-02-15T19:40:44;10.67;65.00
73133;DHT22;61320;52.008;4.530;2023-02-15T19:43:20;10.64;65.21
73133;DHT22;61320;52.008;4.530;2023-02-15T19:45:48;10.63;65.31
73133;DHT22;61320;52.008;4.530;2023-02-15T19:48:17;10.67;64.88
73133;DHT22;61320;52.008;4.530;2023-02-15T19:50:44;10.60;65.15
73133;DHT22;61320;52.008;4.530;2023-02-15T19:53:22;10.61;64.90
73133;DHT22;61320;52.008;4.530;2023-02-15T19:55:51;10.60;65.10
73133;DHT22;61320;52.008;4.530;2023-02-15T19:58:17;10.60;64.92
73133;DHT22;61320;52.008;4.530;2023-02-15T20:00:47;10.48;65.38
73133;DHT22;61320;52.008;4.530;2023-02-15T20:03:14;10.50;65.49
73133;DHT22;61320;52.008;4.530;2023-02-15T20:05:41;10.48;65.66
73133;DHT22;61320;52.008;4.530;2023-02-15T20:08:16;10.47;65.51